createdAt,value
2023-03-21T00:01:57.526Z,24.13
2023-03-21T00:04:25.579Z,24.90
2023-03-21T00:06:52.613Z,27.17
2023-03-21T00:09:22.743Z,25.80
2023-03-21T00:11:49.571Z,25.47
2023-03-21T00:14:18.914Z,25.30
2023-03-21T00:16:50.620Z,25.03
2023-03-21T00:19:19.295Z,26.50
2023-03-21T00:22:08.831Z,24.43
2023-03-21T00:24:39.313Z,24.70
2023-03-21T00:29:55.093Z,24.33
2023-03-21T00:32:22.066Z,23.63
2023-03-21T00:35:02.350Z,25.10
2023-03-21T00:37:36.489Z,25.03
2023-03-21T00:40:08.596Z,27.13
2023-03-21T00:42:35.568Z,25.87
2023-03-21T00:45:06.519Z,26.00
2023-03-21T00:47:33.305Z,25.90
2023-03-21T00:50:00.177Z,25.60
2023-03-21T00:52:40.237Z,25.80
2023-03-21T00:55:10.975Z,25.83
2023-03-21T00:57:39.777Z,26.50
2023-03-21T01:00:10.873Z,26.20
2023-03-21T01:02:43.397Z,26.47
2023-03-21T01:05:12.850Z,25.50
2023-03-21T01:07:42.110Z,25.60
2023-03-21T01:10:14.460Z,25.47
2023-03-21T01:12:43.472Z,24.07
2023-03-21T01:15:10.620Z,24.23
2023-03-21T01:17:37.387Z,25.20
2023-03-21T01:20:06.294Z,24.17
2023-03-21T01:22:33.109Z,22.70
2023-03-21T01:25:12.110Z,22.70
2023-03-21T01:27:46.475Z,23.13
2023-03-21T01:30:19.655Z,22.33
2023-03-21T01:32:50.199Z,22.30
2023-03-21T01:35:17.113Z,22.90
2023-03-21T01:37:46.410Z,22.90
2023-03-21T01:40:17.296Z,23.60
2023-03-21T01:42:46.546Z,23.67
2023-03-21T01:45:52.018Z,25.17
2023-03-21T01:48:19.670Z,23.10
2023-03-21T01:50:46.918Z,23.17
2023-03-21T01:53:14.308Z,23.77
2023-03-21T01:55:41.262Z,24.33
2023-03-21T01:58:09.393Z,24.77
2023-03-21T02:00:36.573Z,23.67
2023-03-21T02:03:13.748Z,22.97
2023-03-21T02:06:00.786Z,23.13
2023-03-21T02:08:38.679Z,21.70
2023-03-21T02:11:10.192Z,21.93
2023-03-21T02:13:37.600Z,20.00
2023-03-21T02:16:46.193Z,20.70
2023-03-21T02:19:37.200Z,19.07
2023-03-21T02:22:20.693Z,18.43
2023-03-21T02:25:00.372Z,19.13
2023-03-21T02:27:34.633Z,18.40
2023-03-21T02:30:14.869Z,18.90
2023-03-21T02:32:47.120Z,19.57
2023-03-21T02:35:35.426Z,19.97
2023-03-21T02:38:04.820Z,20.00
2023-03-21T02:40:57.432Z,22.13
2023-03-21T02:43:37.276Z,21.07
2023-03-21T02:46:16.973Z,22.00
2023-03-21T02:49:11.856Z,23.23
2023-03-21T02:51:39.135Z,22.90
2023-03-21T02:54:41.915Z,23.27
2023-03-21T02:57:01.531Z,20.63
2023-03-21T02:59:28.362Z,21.87
2023-03-21T03:01:55.591Z,21.27
2023-03-21T03:04:31.805Z,20.47
2023-03-21T03:07:10.721Z,20.97
2023-03-21T03:10:01.728Z,21.50
2023-03-21T03:12:58.256Z,20.70
2023-03-21T03:15:51.761Z,21.33
2023-03-21T03:18:26.182Z,20.60
2023-03-21T03:21:10.725Z,21.23
2023-03-21T03:23:45.137Z,22.07
2023-03-21T03:26:20.388Z,21.27
2023-03-21T03:28:50.632Z,22.17
2023-03-21T03:31:31.195Z,21.47
2023-03-21T03:34:00.304Z,21.37
2023-03-21T03:36:35.879Z,21.27
2023-03-21T03:39:06.672Z,21.47
2023-03-21T03:42:00.810Z,21.83
2023-03-21T03:44:39.066Z,20.93
2023-03-21T03:47:17.452Z,20.40
2023-03-21T03:49:49.304Z,20.70
2023-03-21T03:52:22.022Z,19.37
2023-03-21T03:54:49.449Z,19.37
2023-03-21T03:57:18.768Z,20.03
2023-03-21T03:59:45.914Z,21.13
2023-03-21T04:02:13.358Z,20.67
2023-03-21T04:04:42.645Z,20.20
2023-03-21T04:07:09.487Z,20.10
2023-03-21T04:09:44.077Z,18.30
2023-03-21T04:12:12.943Z,19.77
2023-03-21T04:14:45.584Z,19.17
2023-03-21T04:17:14.011Z,19.37
2023-03-21T04:19:43.050Z,19.43
2023-03-21T04:22:12.369Z,20.27
2023-03-21T04:24:39.982Z,19.77
2023-03-21T04:27:06.797Z,19.13
2023-03-21T04:29:33.653Z,19.23
2023-03-21T04:32:01.443Z,18.73
2023-03-21T04:34:30.891Z,17.73
2023-03-21T04:36:57.717Z,16.73
2023-03-21T04:39:24.806Z,16.90
2023-03-21T04:41:51.631Z,15.93
2023-03-21T04:44:18.522Z,16.67
2023-03-21T04:46:45.342Z,16.07
2023-03-21T04:49:14.465Z,16.10
2023-03-21T04:51:41.783Z,16.87
2023-03-21T04:56:36.111Z,15.73
2023-03-21T04:59:06.883Z,16.20
2023-03-21T05:01:34.092Z,15.30
2023-03-21T05:04:01.654Z,15.37
2023-03-21T05:06:28.603Z,15.27
2023-03-21T05:09:01.657Z,14.93
2023-03-21T05:11:31.584Z,15.50
2023-03-21T05:14:01.216Z,15.30
2023-03-21T05:16:31.004Z,15.70
2023-03-21T05:18:59.254Z,15.73
2023-03-21T05:21:29.524Z,15.53
2023-03-21T05:23:58.706Z,16.37
2023-03-21T05:26:25.783Z,15.63
2023-03-21T05:28:55.036Z,16.33
2023-03-21T05:31:24.430Z,16.93
2023-03-21T05:33:51.257Z,16.53
2023-03-21T05:36:18.068Z,16.97
2023-03-21T05:38:47.440Z,16.53
2023-03-21T05:41:19.175Z,16.80
2023-03-21T05:43:46.465Z,16.27
2023-03-21T05:46:13.305Z,16.73
2023-03-21T05:48:40.154Z,16.83
2023-03-21T05:51:06.992Z,16.70
2023-03-21T05:53:36.352Z,16.93
2023-03-21T05:56:03.245Z,17.67
2023-03-21T05:58:30.273Z,17.63
2023-03-21T06:00:57.073Z,18.77
2023-03-21T06:03:26.540Z,17.50
2023-03-21T06:05:53.380Z,17.03
2023-03-21T06:08:20.188Z,16.87
2023-03-21T06:10:46.955Z,18.10
2023-03-21T06:13:13.869Z,19.93
2023-03-21T06:15:43.178Z,18.37
2023-03-21T06:18:12.584Z,17.53
2023-03-21T06:20:39.415Z,17.10
2023-03-21T06:23:08.665Z,16.60
2023-03-21T06:25:35.593Z,16.20
2023-03-21T06:28:02.505Z,15.27
2023-03-21T06:30:29.270Z,15.30
2023-03-21T06:32:58.267Z,15.87
2023-03-21T06:35:29.778Z,17.03
2023-03-21T06:37:58.805Z,14.43
2023-03-21T06:40:25.651Z,14.70
2023-03-21T06:42:52.444Z,13.97
2023-03-21T06:45:19.223Z,12.93
2023-03-21T06:47:46.123Z,14.50
2023-03-21T06:50:13.107Z,13.47
2023-03-21T06:52:42.147Z,13.97
2023-03-21T06:55:11.721Z,13.47
2023-03-21T06:57:40.949Z,12.70
2023-03-21T07:00:09.445Z,12.87
2023-03-21T07:02:38.725Z,12.87
2023-03-21T07:05:06.174Z,12.57
2023-03-21T07:07:32.961Z,12.83
2023-03-21T07:10:01.928Z,12.13
2023-03-21T07:12:28.683Z,12.87
2023-03-21T07:14:55.487Z,12.00
2023-03-21T07:17:24.955Z,13.40
2023-03-21T07:19:52.105Z,11.90
2023-03-21T07:22:21.363Z,11.13
2023-03-21T07:24:55.885Z,11.97
2023-03-21T07:27:29.421Z,10.93
2023-03-21T07:29:58.440Z,11.57
2023-03-21T07:32:30.070Z,10.53
2023-03-21T07:34:56.954Z,10.07
2023-03-21T07:37:26.509Z,10.63
2023-03-21T07:39:53.354Z,9.30
2023-03-21T07:42:20.436Z,9.87
2023-03-21T07:44:49.427Z,9.20
2023-03-21T07:47:16.271Z,8.97
2023-03-21T07:49:43.013Z,8.60
2023-03-21T07:52:09.808Z,9.10
2023-03-21T07:54:36.652Z,8.60
2023-03-21T07:57:04.358Z,8.60
2023-03-21T07:59:31.103Z,8.20
2023-03-21T08:02:00.470Z,8.00
2023-03-21T08:04:28.008Z,8.03
2023-03-21T08:06:54.865Z,8.00
2023-03-21T08:09:24.074Z,8.57
2023-03-21T08:11:52.979Z,7.63
2023-03-21T08:14:21.847Z,7.70
2023-03-21T08:16:48.714Z,7.97
2023-03-21T08:19:16.061Z,8.93
2023-03-21T08:21:45.231Z,7.83
2023-03-21T08:24:12.017Z,8.27
2023-03-21T08:26:38.888Z,7.33
2023-03-21T08:29:06.168Z,7.80
2023-03-21T08:31:35.387Z,7.77
2023-03-21T08:34:02.202Z,7.93
2023-03-21T08:36:30.476Z,7.30
2023-03-21T08:39:05.139Z,7.50
2023-03-21T08:41:32.788Z,9.33
2023-03-21T08:43:59.565Z,7.80
2023-03-21T08:46:26.832Z,7.60
2023-03-21T08:48:54.506Z,7.60
2023-03-21T08:51:21.328Z,7.67
2023-03-21T08:53:50.990Z,7.00
2023-03-21T08:56:18.280Z,7.60
2023-03-21T08:58:47.442Z,8.23
2023-03-21T09:01:15.889Z,7.97
2023-03-21T09:03:45.692Z,7.57
2023-03-21T09:06:14.289Z,7.20
2023-03-21T09:08:42.361Z,7.77
2023-03-21T09:11:09.966Z,7.80
2023-03-21T09:13:39.043Z,7.93
2023-03-21T09:16:08.756Z,7.77
2023-03-21T09:18:48.987Z,7.47
2023-03-21T09:21:16.640Z,7.70
2023-03-21T09:23:46.820Z,7.50
2023-03-21T09:26:17.208Z,7.57
2023-03-21T09:28:44.587Z,8.17
2023-03-21T09:31:12.312Z,7.67
2023-03-21T09:33:42.486Z,7.17
2023-03-21T09:36:14.242Z,7.50
2023-03-21T09:38:45.715Z,7.97
2023-03-21T09:41:12.554Z,7.30
2023-03-21T09:43:43.890Z,7.83
2023-03-21T09:46:31.805Z,7.73
2023-03-21T09:49:02.795Z,7.37
2023-03-21T09:51:33.539Z,7.03
2023-03-21T09:54:02.679Z,7.77
2023-03-21T09:56:31.618Z,7.73
2023-03-21T09:59:01.276Z,7.77
2023-03-21T10:01:35.222Z,7.60
2023-03-21T10:04:09.185Z,7.33
2023-03-21T10:06:39.229Z,7.83
2023-03-21T10:09:13.154Z,7.50
2023-03-21T10:11:47.875Z,7.60
2023-03-21T10:14:17.257Z,8.13
2023-03-21T10:16:45.310Z,8.20
2023-03-21T10:19:15.915Z,8.00
2023-03-21T10:22:03.393Z,7.47
2023-03-21T10:24:34.260Z,7.87
2023-03-21T10:27:03.819Z,8.33
2023-03-21T10:29:42.323Z,7.80
2023-03-21T10:32:19.720Z,7.70
2023-03-21T10:34:50.995Z,6.40
2023-03-21T10:37:20.353Z,6.37
2023-03-21T10:39:48.797Z,6.80
2023-03-21T10:42:24.751Z,6.70
2023-03-21T10:44:53.235Z,6.67
2023-03-21T10:47:26.391Z,6.23
2023-03-21T10:50:07.261Z,6.73
2023-03-21T10:52:37.292Z,5.13
2023-03-21T10:55:08.814Z,3.97
2023-03-21T10:57:38.190Z,3.13
2023-03-21T11:00:15.737Z,2.27
2023-03-21T11:02:44.693Z,2.27
2023-03-21T11:05:20.587Z,1.83
2023-03-21T11:08:06.985Z,1.93
2023-03-21T11:10:35.912Z,2.10
2023-03-21T11:13:06.542Z,2.47
2023-03-21T11:15:47.077Z,2.80
2023-03-21T11:18:19.119Z,3.00
2023-03-21T11:21:05.603Z,3.23
2023-03-21T11:23:35.865Z,3.57
2023-03-21T11:26:09.310Z,3.83
2023-03-21T11:28:44.869Z,4.20
2023-03-21T11:31:11.883Z,4.50
2023-03-21T11:33:59.997Z,4.57
2023-03-21T11:36:39.098Z,4.93
2023-03-21T11:39:15.776Z,4.80
2023-03-21T11:41:50.664Z,4.43
2023-03-21T11:44:27.089Z,4.87
2023-03-21T11:46:56.353Z,4.50
2023-03-21T11:49:23.680Z,4.57
2023-03-21T11:52:13.575Z,4.77
2023-03-21T11:54:59.027Z,4.33
2023-03-21T11:57:31.478Z,4.93
2023-03-21T12:00:01.428Z,5.13
2023-03-21T12:03:06.613Z,4.80
2023-03-21T12:05:40.526Z,5.20
2023-03-21T12:08:15.662Z,5.20
2023-03-21T12:11:11.778Z,5.20
2023-03-21T12:14:03.515Z,5.10
2023-03-21T12:16:43.426Z,5.00
2023-03-21T12:19:49.001Z,5.27
2023-03-21T12:22:25.281Z,5.30
2023-03-21T12:24:55.202Z,5.57
2023-03-21T12:27:24.732Z,4.80
2023-03-21T12:30:10.344Z,5.17
2023-03-21T12:32:57.966Z,5.33
2023-03-21T12:35:30.802Z,4.73
2023-03-21T12:38:04.129Z,4.70
2023-03-21T12:40:46.219Z,5.00
2023-03-21T12:43:33.763Z,5.07
2023-03-21T12:46:03.437Z,4.67
2023-03-21T12:48:38.366Z,5.07
2023-03-21T12:51:07.347Z,4.00
2023-03-21T12:54:20.989Z,4.17
2023-03-21T12:57:11.688Z,4.47
2023-03-21T12:59:41.429Z,4.77
2023-03-21T13:02:23.551Z,4.47
2023-03-21T13:04:55.704Z,4.43
2023-03-21T13:07:27.646Z,4.83
2023-03-21T13:09:55.375Z,4.77
2023-03-21T13:12:46.199Z,4.63
2023-03-21T13:15:39.623Z,4.60
2023-03-21T13:18:47.143Z,4.70
2023-03-21T13:21:25.937Z,5.07
2023-03-21T13:24:01.001Z,5.03
2023-03-21T13:26:38.424Z,5.27
2023-03-21T13:29:21.351Z,5.00
2023-03-21T13:31:51.978Z,4.70
2023-03-21T13:34:22.569Z,4.80
2023-03-21T13:36:50.398Z,4.47
2023-03-21T13:39:19.558Z,4.60
2023-03-21T13:41:48.930Z,4.00
2023-03-21T13:44:22.252Z,4.73
2023-03-21T13:46:55.084Z,4.20
2023-03-21T13:49:35.063Z,4.53
2023-03-21T13:52:11.120Z,3.97
2023-03-21T13:54:56.891Z,3.47
2023-03-21T13:57:38.764Z,3.93
2023-03-21T14:00:30.169Z,4.20
2023-03-21T14:03:10.034Z,3.60
2023-03-21T14:05:37.730Z,3.30
2023-03-21T14:08:24.849Z,3.57
2023-03-21T14:11:01.309Z,3.10
2023-03-21T14:13:29.688Z,3.40
2023-03-21T14:16:06.677Z,3.23
2023-03-21T14:18:53.531Z,3.50
2023-03-21T14:21:24.842Z,3.43
2023-03-21T14:23:58.804Z,3.50
2023-03-21T14:26:30.380Z,3.43
2023-03-21T14:28:57.176Z,3.70
2023-03-21T14:31:24.067Z,3.37
2023-03-21T14:33:56.148Z,4.00
2023-03-21T14:36:34.602Z,3.30
2023-03-21T14:39:07.174Z,3.63
2023-03-21T14:41:34.767Z,3.57
2023-03-21T14:44:25.799Z,4.30
2023-03-21T14:46:54.317Z,4.10
2023-03-21T14:49:29.459Z,4.07
2023-03-21T14:52:00.869Z,4.40
2023-03-21T14:54:27.821Z,4.07
2023-03-21T14:57:04.941Z,4.50
2023-03-21T14:59:38.148Z,4.20
2023-03-21T15:02:40.306Z,4.27
2023-03-21T15:05:22.354Z,3.90
2023-03-21T15:07:56.870Z,3.90
2023-03-21T15:10:24.042Z,3.90
2023-03-21T15:12:51.684Z,4.10
2023-03-21T15:15:18.579Z,4.23
2023-03-21T15:17:47.896Z,4.00
2023-03-21T15:20:15.625Z,3.40
2023-03-21T15:22:46.164Z,4.17
2023-03-21T15:25:17.264Z,3.63
2023-03-21T15:27:44.030Z,3.60
2023-03-21T15:30:23.880Z,3.23
2023-03-21T15:32:51.175Z,3.43
2023-03-21T15:35:28.133Z,4.13
2023-03-21T15:37:56.756Z,4.17
2023-03-21T15:40:26.405Z,4.07
2023-03-21T15:43:19.095Z,4.23
2023-03-21T15:45:50.902Z,4.10
2023-03-21T15:48:21.443Z,4.43
2023-03-21T15:50:57.961Z,4.10
2023-03-21T15:53:24.779Z,4.20
2023-03-21T15:55:53.479Z,4.30
2023-03-21T15:58:24.967Z,4.33
2023-03-21T16:00:56.071Z,4.03
2023-03-21T16:03:27.291Z,4.00
2023-03-21T16:06:17.706Z,4.70
2023-03-21T16:08:49.204Z,4.73
2023-03-21T16:11:25.633Z,4.40
2023-03-21T16:13:53.004Z,4.43
2023-03-21T16:16:21.869Z,4.67
2023-03-21T16:18:48.920Z,4.50
2023-03-21T16:21:17.188Z,4.53
2023-03-21T16:23:44.539Z,4.37
2023-03-21T16:26:16.670Z,5.17
2023-03-21T16:28:44.456Z,4.60
2023-03-21T16:31:16.300Z,4.90
2023-03-21T16:33:43.855Z,5.03
2023-03-21T16:36:15.566Z,5.40
2023-03-21T16:38:44.494Z,4.83
2023-03-21T16:41:12.263Z,5.40
2023-03-21T16:43:44.823Z,4.87
2023-03-21T16:46:24.512Z,4.73
2023-03-21T16:48:57.748Z,5.20
2023-03-21T16:51:29.345Z,5.30
2023-03-21T16:53:58.667Z,5.00
2023-03-21T16:56:27.805Z,5.67
2023-03-21T16:58:55.303Z,5.13
2023-03-21T17:01:26.052Z,5.63
2023-03-21T17:03:53.013Z,5.13
2023-03-21T17:06:24.474Z,5.43
2023-03-21T17:08:56.181Z,5.97
2023-03-21T17:11:23.772Z,5.60
2023-03-21T17:13:53.512Z,5.90
2023-03-21T17:16:22.462Z,5.70
2023-03-21T17:18:50.208Z,5.30
2023-03-21T17:21:24.886Z,6.20
2023-03-21T17:23:54.267Z,5.90
2023-03-21T17:26:29.967Z,6.03
2023-03-21T17:28:57.030Z,5.73
2023-03-21T17:31:27.276Z,6.00
2023-03-21T17:33:54.186Z,6.50
2023-03-21T17:36:28.623Z,6.57
2023-03-21T17:38:55.644Z,5.90
2023-03-21T17:41:24.553Z,6.47
2023-03-21T17:43:53.621Z,5.67
2023-03-21T17:46:22.321Z,6.20
2023-03-21T17:48:52.004Z,7.03
2023-03-21T17:51:19.231Z,7.20
2023-03-21T17:53:47.310Z,6.90
2023-03-21T17:56:30.818Z,6.40
2023-03-21T17:59:09.939Z,6.47
2023-03-21T18:01:36.756Z,7.30
2023-03-21T18:04:05.184Z,8.33
2023-03-21T18:06:33.974Z,8.63
2023-03-21T18:09:07.150Z,7.37
2023-03-21T18:11:37.156Z,7.60
2023-03-21T18:14:15.714Z,7.63
2023-03-21T18:16:44.845Z,7.73
2023-03-21T18:19:13.255Z,8.03
2023-03-21T18:21:45.466Z,9.47
2023-03-21T18:24:13.281Z,9.00
2023-03-21T18:26:47.280Z,8.77
2023-03-21T18:32:07.751Z,8.93
2023-03-21T18:34:38.727Z,9.07
2023-03-21T18:37:07.978Z,9.07
2023-03-21T18:39:38.102Z,10.03
2023-03-21T18:42:06.484Z,9.60
2023-03-21T18:44:37.431Z,14.00
2023-03-21T18:47:07.641Z,11.53
2023-03-21T18:52:23.948Z,11.27
2023-03-21T18:54:50.710Z,10.27
2023-03-21T18:57:35.816Z,9.87
2023-03-21T19:00:17.022Z,10.13
2023-03-21T19:02:47.783Z,10.40
2023-03-21T19:05:20.958Z,9.90
2023-03-21T19:07:48.190Z,10.23
2023-03-21T19:10:20.286Z,9.97
2023-03-21T19:12:51.735Z,9.80
2023-03-21T19:15:21.950Z,9.80
2023-03-21T19:20:43.255Z,10.13
2023-03-21T19:23:10.854Z,10.00
2023-03-21T19:25:38.026Z,9.80
2023-03-21T19:28:05.062Z,9.93
2023-03-21T19:30:31.907Z,10.07
2023-03-21T19:32:58.726Z,11.03
2023-03-21T19:35:25.733Z,9.50
2023-03-21T19:37:52.598Z,9.70
2023-03-21T19:40:19.906Z,12.20
2023-03-21T19:42:46.697Z,13.13
2023-03-21T19:45:13.480Z,12.07
2023-03-21T19:47:40.374Z,12.80
2023-03-21T19:52:58.982Z,13.20
2023-03-21T19:55:28.557Z,14.20
2023-03-21T19:57:57.466Z,15.53
2023-03-21T20:00:24.373Z,15.33
2023-03-21T20:02:53.408Z,19.63
2023-03-21T20:05:22.040Z,21.97
2023-03-21T20:07:53.516Z,28.17
2023-03-21T20:10:20.464Z,27.97
2023-03-21T20:12:47.558Z,29.20
2023-03-21T20:15:20.790Z,32.17
2023-03-21T20:17:49.192Z,29.73
2023-03-21T20:20:18.251Z,30.37
2023-03-21T20:23:07.775Z,30.60
2023-03-21T20:25:39.800Z,30.80
2023-03-21T20:28:15.634Z,30.90
2023-03-21T20:30:50.559Z,30.73
2023-03-21T20:33:17.749Z,30.40
2023-03-21T20:38:35.723Z,30.93
2023-03-21T20:41:03.785Z,29.13
2023-03-21T20:46:22.446Z,30.67
2023-03-21T20:48:49.762Z,29.77
2023-03-21T20:52:27.513Z,30.17
2023-03-21T20:54:06.043Z,29.90
2023-03-21T20:56:33.006Z,28.40
2023-03-21T20:59:15.263Z,29.03
2023-03-21T21:01:45.423Z,29.97
2023-03-21T21:04:20.071Z,27.47
2023-03-21T21:06:48.107Z,27.97
2023-03-21T21:09:15.072Z,26.50
2023-03-21T21:12:07.153Z,26.83
2023-03-21T21:14:30.786Z,25.03
2023-03-21T21:16:58.914Z,24.97
2023-03-21T21:19:26.126Z,25.33
2023-03-21T21:21:55.479Z,24.70
2023-03-21T21:24:22.320Z,24.87
2023-03-21T21:26:51.602Z,25.00
2023-03-21T21:29:18.455Z,24.53
2023-03-21T21:31:52.108Z,25.27
2023-03-21T21:34:21.690Z,23.03
2023-03-21T21:36:51.339Z,23.30
2023-03-21T21:39:21.950Z,22.83
2023-03-21T21:41:48.810Z,23.53
2023-03-21T21:44:15.727Z,23.77
2023-03-21T21:46:42.712Z,23.97
2023-03-21T21:49:11.826Z,22.17
2023-03-21T21:51:41.936Z,22.63
2023-03-21T21:54:08.778Z,23.53
2023-03-21T21:56:37.836Z,22.87
2023-03-21T21:59:05.529Z,23.00
2023-03-21T22:01:38.649Z,23.50
2023-03-21T22:04:10.841Z,22.77
2023-03-21T22:06:37.739Z,22.07
2023-03-21T22:09:06.979Z,22.93
2023-03-21T22:11:33.976Z,22.57
2023-03-21T22:14:03.064Z,22.17
2023-03-21T22:16:29.924Z,22.00
2023-03-21T22:18:56.798Z,23.17
2023-03-21T22:21:23.671Z,22.30
2023-03-21T22:23:50.676Z,21.43
2023-03-21T22:26:17.577Z,22.37
2023-03-21T22:28:46.625Z,21.93
2023-03-21T22:31:16.245Z,22.10
2023-03-21T22:33:43.787Z,22.57
2023-03-21T22:36:10.852Z,21.60
2023-03-21T22:38:38.287Z,23.90
2023-03-21T22:41:05.784Z,23.90
2023-03-21T22:43:34.341Z,23.47
2023-03-21T22:46:04.752Z,24.53
2023-03-21T22:48:31.755Z,24.00
2023-03-21T22:50:58.910Z,23.20
2023-03-21T22:53:28.264Z,24.47
2023-03-21T22:55:57.897Z,23.37
2023-03-21T22:58:24.757Z,24.13
2023-03-21T23:00:51.985Z,25.17
2023-03-21T23:03:18.851Z,24.00
2023-03-21T23:05:45.836Z,23.97
2023-03-21T23:08:16.039Z,24.07
2023-03-21T23:10:46.083Z,23.93
2023-03-21T23:13:12.888Z,25.57
2023-03-21T23:15:39.741Z,25.30
2023-03-21T23:18:06.762Z,24.23
2023-03-21T23:20:33.622Z,25.00
2023-03-21T23:23:05.044Z,24.70
2023-03-21T23:25:33.635Z,23.90
2023-03-21T23:28:00.968Z,23.37
2023-03-21T23:30:27.733Z,23.67
2023-03-21T23:32:54.502Z,24.40
2023-03-21T23:35:21.348Z,25.60
2023-03-21T23:37:50.127Z,23.60
2023-03-21T23:40:17.002Z,25.93
2023-03-21T23:42:43.796Z,26.03
2023-03-21T23:45:11.039Z,26.80
2023-03-21T23:47:37.853Z,25.37
2023-03-21T23:50:07.804Z,27.40
2023-03-21T23:52:37.081Z,28.67
2023-03-21T23:55:05.715Z,27.63
2023-03-21T23:57:32.571Z,28.10
2023-03-21T23:59:59.465Z,27.33
